Terminal Aerodrome Forecast
Issued by NWS

Home | Current Version | Previous Version | Text Only | Print | Product List | Glossary On
Versions: 1 2 3 4 5 6 7 8 9 10 11 12 13 14 15 16 17 18
978
FTUS46 KSGX 181736
TAFCRQ
TAF
KCRQ 181736Z 1818/1918 VRB05KT P6SM BKN012 BKN200
      TEMPO 1819/1823 SCT020
     FM190600 18007KT P6SM VCSH BKN020
     FM191200 16013G20KT 4SM RA BR BKN010=

USA.gov is the U.S. government's official web portal to all federal, state and local government web resources and services.